Time;durP1;ratioP1;P1;durP2;ratioP2;P2;SDS_P1;SDS_P2;PMS_P1;PMS_P2;Temp;Humidity;BMP_temperature;BMP_pressure;BME280_temperature;BME280_humidity;BME280_pressure;Samples;Min_cycle;Max_cycle;Signal;HPM_P1;HPM_P2
2022/07/01 00:01:36;;;;;;;;;;;;;;;-146.27;100.00;64033.13;5093195;28;19912;-50
2022/07/01 00:04:01;;;;;;;;;;;;;;;-146.27;100.00;64033.13;5092746;28;19919;-48
2022/07/01 00:06:27;;;;;;;;;;;;;;;-146.27;100.00;64033.13;5091445;28;19916;-47
2022/07/01 00:08:52;;;;;;;;;;;;;;;-146.27;100.00;64033.13;5093015;28;19919;-47
2022/07/01 00:11:17;;;;;;;;;;;;;;;-146.27;100.00;64033.13;5092974;28;19912;-47
2022/07/01 00:13:43;;;;;;;;;;;;;;;-146.27;100.00;64033.13;5092638;28;20342;-47
2022/07/01 00:16:08;;;;;;;;;;;;;;;-146.27;100.00;64033.13;5092884;28;19912;-47
2022/07/01 00:18:33;;;;;;;;;;;;;;;-146.27;100.00;64033.13;5092529;28;19911;-48
2022/07/01 00:21:00;;;;;;;;;;;;;;;-146.27;100.00;64033.13;5092830;28;19923;-49
2022/07/01 00:23:26;;;;;;;;;;;;;;;-146.27;100.00;64033.13;5092639;28;20316;-49
2022/07/01 00:25:51;;;;;;;;;;;;;;;-146.27;100.00;64033.13;5092383;28;20004;-51
2022/07/01 00:28:16;;;;;;;;;;;;;;;-146.27;100.00;64033.13;5092743;28;19916;-48
2022/07/01 00:30:42;;;;;;;;;;;;;;;-146.27;100.00;64033.13;5092619;28;19931;-48
2022/07/01 00:33:07;;;;;;;;;;;;;;;-146.27;100.00;64033.13;5093584;28;19920;-38
2022/07/01 00:35:32;;;;;;;;;;;;;;;-146.27;100.00;64033.13;5093130;28;19924;-38
2022/07/01 00:37:58;;;;;;;;;;;;;;;-146.27;100.00;64033.13;5106925;28;20052;-38
2022/07/01 00:40:23;;;;;;;;;;;;;;;-146.27;100.00;64033.13;5113123;28;20002;-38
2022/07/01 00:42:49;;;;;;;;;;;;;;;-146.27;100.00;64033.13;5113141;28;19919;-38
2022/07/01 00:45:14;;;;;;;;;;;;;;;-146.27;100.00;64033.13;5113121;28;19961;-38
2022/07/01 00:47:40;;;;;;;;;;;;;;;-146.27;100.00;64033.13;5113482;28;20022;-38
2022/07/01 00:50:10;;;;;;;;;;;;;;;-146.27;100.00;64033.13;5112618;28;19939;-37
2022/07/01 00:52:35;;;;;;;;;;;;;;;-146.27;100.00;64033.13;5111919;28;20349;-39
2022/07/01 00:55:05;;;;;;;;;;;;;;;-146.27;100.00;64033.13;5113133;28;19915;-38
2022/07/01 00:57:30;;;;;;;;;;;;;;;-146.27;100.00;64033.13;5113096;28;20324;-38
2022/07/01 00:59:56;;;;;;;;;;;;;;;-146.27;100.00;64033.13;5113107;28;20005;-38
2022/07/01 01:02:21;;;;;;;;;;;;;;;-146.27;100.00;64033.13;5113174;28;20337;-38
2022/07/01 01:04:47;;;;;;;;;;;;;;;-146.27;100.00;64033.13;5113471;28;20338;-36
2022/07/01 01:07:13;;;;;;;;;;;;;;;-146.27;100.00;64033.13;5112445;28;20434;-37
2022/07/01 01:09:38;;;;;;;;;;;;;;;-146.27;100.00;64033.13;5102448;28;19919;-38
2022/07/01 01:12:04;;;;;;;;;;;;;;;-146.27;100.00;64033.13;5092190;28;19912;-37
2022/07/01 01:14:29;;;;;;;;;;;;;;;-146.27;100.00;64033.13;5091946;28;20482;-37
2022/07/01 01:16:54;;;;;;;;;;;;;;;-146.27;100.00;64033.13;5092608;28;19962;-37
2022/07/01 01:19:20;;;;;;;;;;;;;;;-146.27;100.00;64033.13;5092575;28;20002;-51
2022/07/01 01:21:45;;;;;;;;;;;;;;;-146.27;100.00;64033.13;5092088;28;19916;-49
2022/07/01 01:24:11;;;;;;;;;;;;;;;-146.27;100.00;64033.13;5090600;28;19919;-49
2022/07/01 01:26:38;;;;;;;;;;;;;;;-146.27;100.00;64033.13;5092108;28;19992;-49
2022/07/01 01:29:04;;;;;;;;;;;;;;;-146.27;100.00;64033.13;5092009;28;19941;-50
2022/07/01 01:31:30;;;;;;;;;;;;;;;-146.27;100.00;64033.13;5092173;28;19912;-50
2022/07/01 01:33:56;;;;;;;;;;;;;;;-146.27;100.00;64033.13;5091818;28;20003;-48
2022/07/01 01:36:21;;;;;;;;;;;;;;;-146.27;100.00;64033.13;5092650;28;20431;-48
2022/07/01 01:38:47;;;;;;;;;;;;;;;-146.27;100.00;64033.13;5112504;28;19922;-49
2022/07/01 01:41:12;;;;;;;;;;;;;;;-146.27;100.00;64033.13;5112118;28;19980;-49
2022/07/01 01:43:37;;;;;;;;;;;;;;;-146.27;100.00;64033.13;5111900;28;20003;-50
2022/07/01 01:46:03;;;;;;;;;;;;;;;-146.27;100.00;64033.13;5112438;28;19912;-51
2022/07/01 01:48:29;;;;;;;;;;;;;;;-146.27;100.00;64033.13;5111314;28;20436;-50
2022/07/01 01:50:55;;;;;;;;;;;;;;;-146.27;100.00;64033.13;5112454;28;19912;-49
2022/07/01 01:53:21;;;;;;;;;;;;;;;-146.27;100.00;64033.13;5111730;28;19916;-48
2022/07/01 01:55:46;;;;;;;;;;;;;;;-146.27;100.00;64033.13;5111682;28;19916;-50
2022/07/01 01:58:11;;;;;;;;;;;;;;;-146.27;100.00;64033.13;5111706;28;20014;-52
2022/07/01 02:00:37;;;;;;;;;;;;;;;-146.27;100.00;64033.13;5111116;28;20367;-49
2022/07/01 02:03:02;;;;;;;;;;;;;;;-146.27;100.00;64033.13;5111547;28;19946;-48
2022/07/01 02:05:28;;;;;;;;;;;;;;;-146.27;100.00;64033.13;5111066;28;19918;-51
2022/07/01 02:07:53;;;;;;;;;;;;;;;-146.27;100.00;64033.13;5112024;28;20282;-50
2022/07/01 02:10:19;;;;;;;;;;;;;;;-146.27;100.00;64033.13;5095190;28;20069;-48
2022/07/01 02:12:44;;;;;;;;;;;;;;;-146.27;100.00;64033.13;5091217;28;19976;-48
2022/07/01 02:15:09;;;;;;;;;;;;;;;-146.27;100.00;64033.13;5089220;28;19922;-50
2022/07/01 02:17:35;;;;;;;;;;;;;;;-146.27;100.00;64033.13;5091423;28;19919;-50
2022/07/01 02:20:00;;;;;;;;;;;;;;;-146.27;100.00;64033.13;5089763;28;20337;-51
2022/07/01 02:22:25;;;;;;;;;;;;;;;-146.27;100.00;64033.13;5091431;28;20003;-47
2022/07/01 02:24:51;;;;;;;;;;;;;;;-146.27;100.00;64033.13;5090418;28;20363;-47
2022/07/01 02:27:16;;;;;;;;;;;;;;;-146.27;100.00;64033.13;5090998;28;19912;-49
2022/07/01 02:29:41;;;;;;;;;;;;;;;-146.27;100.00;64033.13;5090682;28;19981;-48
2022/07/01 02:32:07;;;;;;;;;;;;;;;-146.27;100.00;64033.13;5090585;28;19916;-47
2022/07/01 02:34:32;;;;;;;;;;;;;;;-146.27;100.00;64033.13;5090995;28;20015;-51
2022/07/01 02:36:57;;;;;;;;;;;;;;;-146.27;100.00;64033.13;5096639;28;20379;-48
2022/07/01 02:39:23;;;;;;;;;;;;;;;-146.27;100.00;64033.13;5111659;28;19912;-48
2022/07/01 02:44:34;;;;;;;;;;;;;;;-146.27;100.00;64033.13;5111684;28;19919;-48
2022/07/01 02:46:59;;;;;;;;;;;;;;;-146.27;100.00;64033.13;5111229;28;19912;-48
2022/07/01 02:49:24;;;;;;;;;;;;;;;-146.27;100.00;64033.13;5111261;28;19919;-47
2022/07/01 02:51:49;;;;;;;;;;;;;;;-146.27;100.00;64033.13;5111434;28;19912;-47
2022/07/01 02:54:16;;;;;;;;;;;;;;;-146.27;100.00;64033.13;5111235;28;19919;-47
2022/07/01 02:56:41;;;;;;;;;;;;;;;-146.27;100.00;64033.13;5111636;28;19933;-48
2022/07/01 02:59:06;;;;;;;;;;;;;;;-146.27;100.00;64033.13;5111249;28;20036;-48
2022/07/01 03:01:32;;;;;;;;;;;;;;;-146.27;100.00;64033.13;5113288;28;20383;-48
2022/07/01 03:03:57;;;;;;;;;;;;;;;-146.27;100.00;64033.13;5115080;28;19993;-50
2022/07/01 03:06:22;;;;;;;;;;;;;;;-146.27;100.00;64033.13;5115401;28;20303;-48
2022/07/01 03:08:48;;;;;;;;;;;;;;;-146.27;100.00;64033.13;5110935;28;19916;-49
2022/07/01 03:11:13;;;;;;;;;;;;;;;-146.27;100.00;64033.13;5095250;28;20369;-47
2022/07/01 03:13:39;;;;;;;;;;;;;;;-146.27;100.00;64033.13;5094120;28;20307;-49
2022/07/01 03:16:04;;;;;;;;;;;;;;;-146.27;100.00;64033.13;5094580;28;19990;-50
2022/07/01 03:18:29;;;;;;;;;;;;;;;-146.27;100.00;64033.13;5094345;28;19916;-50
2022/07/01 03:20:55;;;;;;;;;;;;;;;-146.27;100.00;64033.13;5094626;28;19958;-50
2022/07/01 03:23:20;;;;;;;;;;;;;;;-146.27;100.00;64033.13;5094805;28;19912;-47
2022/07/01 03:25:45;;;;;;;;;;;;;;;-146.27;100.00;64033.13;5094276;28;19919;-48
2022/07/01 03:28:10;;;;;;;;;;;;;;;-146.27;100.00;64033.13;5094765;28;19916;-51
2022/07/01 03:30:36;;;;;;;;;;;;;;;-146.27;100.00;64033.13;5094407;28;20348;-47
2022/07/01 03:33:01;;;;;;;;;;;;;;;-146.27;100.00;64033.13;5094766;28;20388;-48
2022/07/01 03:35:35;;;;;;;;;;;;;;;-146.27;100.00;64033.13;5094557;28;19993;-38
2022/07/01 03:38:01;;;;;;;;;;;;;;;-146.27;100.00;64033.13;5108712;28;20414;-37
2022/07/01 03:40:27;;;;;;;;;;;;;;;-146.27;100.00;64033.13;5114610;28;19957;-37
2022/07/01 03:42:52;;;;;;;;;;;;;;;-146.27;100.00;64033.13;5114869;28;19919;-38
2022/07/01 03:45:17;;;;;;;;;;;;;;;-146.27;100.00;64033.13;5114489;28;19922;-38
2022/07/01 03:47:46;;;;;;;;;;;;;;;-146.27;100.00;64033.13;5114521;28;20311;-37
2022/07/01 03:50:11;;;;;;;;;;;;;;;-146.27;100.00;64033.13;5102766;28;20462;-37
2022/07/01 03:52:37;;;;;;;;;;;;;;;-146.27;100.00;64033.13;5094098;28;20026;-38
2022/07/01 03:55:03;;;;;;;;;;;;;;;-146.27;100.00;64033.13;5094178;28;19916;-46
2022/07/01 03:57:29;;;;;;;;;;;;;;;-146.27;100.00;64033.13;5095618;28;20398;-39
2022/07/01 03:59:54;;;;;;;;;;;;;;;-146.27;100.00;64033.13;5095654;28;19936;-37
2022/07/01 04:02:19;;;;;;;;;;;;;;;-146.27;100.00;64033.13;5092927;28;19912;-38
2022/07/01 04:04:45;;;;;;;;;;;;;;;-146.27;100.00;64033.13;5093459;28;20003;-38
2022/07/01 04:07:11;;;;;;;;;;;;;;;-146.27;100.00;64033.13;5093713;28;19912;-36
2022/07/01 04:09:37;;;;;;;;;;;;;;;-146.27;100.00;64033.13;5093339;28;20367;-37
2022/07/01 04:12:02;;;;;;;;;;;;;;;-146.27;100.00;64033.13;5092482;28;19919;-38
2022/07/01 04:14:29;;;;;;;;;;;;;;;-146.27;100.00;64033.13;5093041;28;19947;-41
2022/07/01 04:16:55;;;;;;;;;;;;;;;-146.27;100.00;64033.13;5092155;28;19912;-37
2022/07/01 04:19:20;;;;;;;;;;;;;;;-146.27;100.00;64033.13;5093635;28;19912;-38
2022/07/01 04:24:32;;;;;;;;;;;;;;;-146.27;100.00;64033.13;5093179;28;20232;-37
2022/07/01 04:26:58;;;;;;;;;;;;;;;-146.27;100.00;64033.13;5081277;28;19930;-38
2022/07/01 04:29:23;;;;;;;;;;;;;;;-146.27;100.00;64033.13;5073431;28;19912;-37
2022/07/01 04:31:48;;;;;;;;;;;;;;;-146.27;100.00;64033.13;5081970;28;19932;-37
2022/07/01 04:34:14;;;;;;;;;;;;;;;-146.27;100.00;64033.13;5093130;28;20025;-50
2022/07/01 04:36:39;;;;;;;;;;;;;;;-146.27;100.00;64033.13;5096167;28;20002;-37
2022/07/01 04:39:04;;;;;;;;;;;;;;;-146.27;100.00;64033.13;5113373;28;19912;-38
2022/07/01 04:44:14;;;;;;;;;;;;;;;-146.27;100.00;64033.13;5112930;28;20049;-38
2022/07/01 04:46:39;;;;;;;;;;;;;;;-146.27;100.00;64033.13;5111223;28;19988;-39
2022/07/01 04:49:05;;;;;;;;;;;;;;;-146.27;100.00;64033.13;5112690;28;19922;-36
2022/07/01 04:51:30;;;;;;;;;;;;;;;-146.27;100.00;64033.13;5112206;28;19911;-37
2022/07/01 04:53:56;;;;;;;;;;;;;;;-146.27;100.00;64033.13;5110912;28;20006;-37
2022/07/01 04:56:21;;;;;;;;;;;;;;;-146.27;100.00;64033.13;5110921;28;19918;-37
2022/07/01 04:58:47;;;;;;;;;;;;;;;-146.27;100.00;64033.13;5110690;28;19912;-37
2022/07/01 05:01:13;;;;;;;;;;;;;;;-146.27;100.00;64033.13;5110396;28;19927;-37
2022/07/01 05:03:38;;;;;;;;;;;;;;;-146.27;100.00;64033.13;5110903;28;20025;-36
2022/07/01 05:06:04;;;;;;;;;;;;;;;-146.27;100.00;64033.13;5111510;28;20322;-37
2022/07/01 05:08:29;;;;;;;;;;;;;;;-146.27;100.00;64033.13;5111851;28;20355;-36
2022/07/01 05:10:55;;;;;;;;;;;;;;;-146.27;100.00;64033.13;5111015;28;20006;-36
2022/07/01 05:13:20;;;;;;;;;;;;;;;-146.27;100.00;64033.13;5110601;28;20047;-38
2022/07/01 05:15:45;;;;;;;;;;;;;;;-146.27;100.00;64033.13;5111303;28;20217;-37
2022/07/01 05:23:38;;;;;;;;;;;;;;;-146.27;100.00;64033.13;5111097;28;20052;-37
2022/07/01 05:26:04;;;;;;;;;;;;;;;-146.27;100.00;64033.13;5111673;28;19911;-37
2022/07/01 05:28:29;;;;;;;;;;;;;;;-146.27;100.00;64033.13;5094078;28;19912;-38
2022/07/01 05:30:54;;;;;;;;;;;;;;;-146.27;100.00;64033.13;5091435;28;19935;-38
2022/07/01 05:33:21;;;;;;;;;;;;;;;-146.27;100.00;64033.13;5091828;28;19923;-37
2022/07/01 05:35:46;;;;;;;;;;;;;;;-146.27;100.00;64033.13;5091063;28;19960;-37
2022/07/01 05:38:12;;;;;;;;;;;;;;;-146.27;100.00;64033.13;5090521;28;19966;-37
2022/07/01 05:40:37;;;;;;;;;;;;;;;-146.27;100.00;64033.13;5091363;28;20323;-37
2022/07/01 05:43:02;;;;;;;;;;;;;;;-146.27;100.00;64033.13;5091289;28;19955;-37
2022/07/01 05:45:28;;;;;;;;;;;;;;;-146.27;100.00;64033.13;5091628;28;19912;-38
2022/07/01 05:47:53;;;;;;;;;;;;;;;-146.27;100.00;64033.13;5091082;28;19912;-37
2022/07/01 05:50:18;;;;;;;;;;;;;;;-146.27;100.00;64033.13;5091250;28;19919;-37
2022/07/01 05:52:44;;;;;;;;;;;;;;;-146.27;100.00;64033.13;5091390;28;20383;-37
2022/07/01 05:55:10;;;;;;;;;;;;;;;-146.27;100.00;64033.13;5091046;28;20544;-37
2022/07/01 05:57:35;;;;;;;;;;;;;;;-146.27;100.00;64033.13;5091034;28;20421;-37
2022/07/01 06:00:00;;;;;;;;;;;;;;;-146.27;100.00;64033.13;5090741;28;20267;-37
2022/07/01 06:02:26;;;;;;;;;;;;;;;-146.27;100.00;64033.13;5090940;28;19935;-37
2022/07/01 06:04:52;;;;;;;;;;;;;;;-146.27;100.00;64033.13;5090859;28;19916;-36
2022/07/01 06:07:17;;;;;;;;;;;;;;;-146.27;100.00;64033.13;5090933;28;20318;-36
2022/07/01 06:09:42;;;;;;;;;;;;;;;-146.27;100.00;64033.13;5090126;28;19920;-36
2022/07/01 06:12:08;;;;;;;;;;;;;;;-146.27;100.00;64033.13;5090548;28;19969;-36
2022/07/01 06:14:33;;;;;;;;;;;;;;;-146.27;100.00;64033.13;5090383;28;19965;-37
2022/07/01 06:16:58;;;;;;;;;;;;;;;-146.27;100.00;64033.13;5091338;28;19912;-37
2022/07/01 06:19:23;;;;;;;;;;;;;;;-146.27;100.00;64033.13;5090812;28;19935;-38
2022/07/01 06:21:49;;;;;;;;;;;;;;;-146.27;100.00;64033.13;5090768;28;19947;-37
2022/07/01 06:24:14;;;;;;;;;;;;;;;-146.27;100.00;64033.13;5090780;28;19972;-37
2022/07/01 06:26:40;;;;;;;;;;;;;;;-146.27;100.00;64033.13;5090207;28;19912;-38
2022/07/01 06:29:05;;;;;;;;;;;;;;;-146.27;100.00;64033.13;5090376;28;19939;-37
2022/07/01 06:31:33;;;;;;;;;;;;;;;-146.27;100.00;64033.13;5090395;28;19912;-38
2022/07/01 06:33:58;;;;;;;;;;;;;;;-146.27;100.00;64033.13;5090493;28;20011;-36
2022/07/01 06:36:23;;;;;;;;;;;;;;;-146.27;100.00;64033.13;5090064;28;20069;-36
2022/07/01 06:38:48;;;;;;;;;;;;;;;-146.27;100.00;64033.13;5090832;28;20268;-37
2022/07/01 06:41:29;;;;;;;;;;;;;;;-146.27;100.00;64033.13;5090217;28;19913;-36
2022/07/01 06:43:55;;;;;;;;;;;;;;;-146.27;100.00;64033.13;5090397;28;20065;-37
2022/07/01 06:46:21;;;;;;;;;;;;;;;-146.27;100.00;64033.13;5090632;28;19912;-38
2022/07/01 06:48:46;;;;;;;;;;;;;;;-146.27;100.00;64033.13;5090287;28;19912;-36
2022/07/01 06:51:11;;;;;;;;;;;;;;;-146.27;100.00;64033.13;5090318;28;20002;-36
2022/07/01 06:53:37;;;;;;;;;;;;;;;-146.27;100.00;64033.13;5090099;28;20253;-36
2022/07/01 06:56:02;;;;;;;;;;;;;;;-146.27;100.00;64033.13;5089742;28;20271;-37
2022/07/01 06:58:28;;;;;;;;;;;;;;;-146.27;100.00;64033.13;5090074;28;19920;-36
2022/07/01 07:00:53;;;;;;;;;;;;;;;-146.27;100.00;64033.13;5089959;28;19912;-37
2022/07/01 07:03:18;;;;;;;;;;;;;;;-146.27;100.00;64033.13;5089952;28;19965;-38
2022/07/01 07:05:44;;;;;;;;;;;;;;;-146.27;100.00;64033.13;5090157;28;20299;-37
2022/07/01 07:08:09;;;;;;;;;;;;;;;-146.27;100.00;64033.13;5089800;28;20248;-37
2022/07/01 07:10:34;;;;;;;;;;;;;;;-146.27;100.00;64033.13;5089892;28;19984;-37
2022/07/01 07:13:00;;;;;;;;;;;;;;;-146.27;100.00;64033.13;5089878;28;20311;-36
2022/07/01 07:15:25;;;;;;;;;;;;;;;-146.27;100.00;64033.13;5090076;28;20332;-38
2022/07/01 07:17:50;;;;;;;;;;;;;;;-146.27;100.00;64033.13;5090176;28;19967;-38
2022/07/01 07:20:16;;;;;;;;;;;;;;;-146.27;100.00;64033.13;5089536;28;20039;-37
2022/07/01 07:22:42;;;;;;;;;;;;;;;-146.27;100.00;64033.13;5090021;28;19999;-38
2022/07/01 07:25:07;;;;;;;;;;;;;;;-146.27;100.00;64033.13;5089405;28;20057;-40
2022/07/01 07:27:33;;;;;;;;;;;;;;;-146.27;100.00;64033.13;5090181;28;20508;-37
2022/07/01 07:29:58;;;;;;;;;;;;;;;-146.27;100.00;64033.13;5089999;28;20021;-38
2022/07/01 07:32:23;;;;;;;;;;;;;;;-146.27;100.00;64033.13;5089914;28;19999;-37
2022/07/01 07:34:48;;;;;;;;;;;;;;;-146.27;100.00;64033.13;5089166;28;19924;-38
2022/07/01 07:37:14;;;;;;;;;;;;;;;-146.27;100.00;64033.13;5089685;28;20355;-36
2022/07/01 07:39:39;;;;;;;;;;;;;;;-146.27;100.00;64033.13;5089778;28;19911;-37
2022/07/01 07:42:05;;;;;;;;;;;;;;;-146.27;100.00;64033.13;5089831;28;19916;-38
2022/07/01 07:44:30;;;;;;;;;;;;;;;-146.27;100.00;64033.13;5089816;28;20342;-37
2022/07/01 07:46:56;;;;;;;;;;;;;;;-146.27;100.00;64033.13;5093235;28;19959;-38
2022/07/01 07:49:22;;;;;;;;;;;;;;;-146.27;100.00;64033.13;5109790;28;19912;-37
2022/07/01 07:51:47;;;;;;;;;;;;;;;-146.27;100.00;64033.13;5100782;28;19912;-38
2022/07/01 07:54:13;;;;;;;;;;;;;;;-146.27;100.00;64033.13;5102100;28;20280;-38
2022/07/01 07:56:38;;;;;;;;;;;;;;;-146.27;100.00;64033.13;5107195;28;19915;-37
2022/07/01 07:59:04;;;;;;;;;;;;;;;-146.27;100.00;64033.13;5096345;28;19968;-36
2022/07/01 08:01:29;;;;;;;;;;;;;;;-146.27;100.00;64033.13;5108576;28;19961;-37
2022/07/01 08:03:54;;;;;;;;;;;;;;;-146.27;100.00;64033.13;5092485;28;19920;-37
2022/07/01 08:06:20;;;;;;;;;;;;;;;-146.27;100.00;64033.13;5104569;28;19942;-37
2022/07/01 08:08:46;;;;;;;;;;;;;;;-146.27;100.00;64033.13;5097688;28;19912;-37
2022/07/01 08:11:11;;;;;;;;;;;;;;;-146.27;100.00;64033.13;5112370;28;19922;-37
2022/07/01 08:13:36;;;;;;;;;;;;;;;-146.27;100.00;64033.13;5107384;28;19912;-38
2022/07/01 08:16:02;;;;;;;;;;;;;;;-146.27;100.00;64033.13;5092782;28;19925;-38
2022/07/01 08:18:27;;;;;;;;;;;;;;;-146.27;100.00;64033.13;5106010;28;20153;-38
2022/07/01 08:20:53;;;;;;;;;;;;;;;-146.27;100.00;64033.13;5096703;28;19919;-38
2022/07/01 08:23:19;;;;;;;;;;;;;;;-146.27;100.00;64033.13;5109995;28;19928;-37
2022/07/01 08:25:45;;;;;;;;;;;;;;;-146.27;100.00;64033.13;5099606;28;20486;-38
2022/07/01 08:28:10;;;;;;;;;;;;;;;-146.27;100.00;64033.13;5103104;28;20011;-38
2022/07/01 08:30:35;;;;;;;;;;;;;;;-146.27;100.00;64033.13;5102779;28;19926;-38
2022/07/01 08:33:01;;;;;;;;;;;;;;;-146.27;100.00;64033.13;5104028;28;19916;-38
2022/07/01 08:35:26;;;;;;;;;;;;;;;-146.27;100.00;64033.13;5103863;28;20329;-38
2022/07/01 08:37:51;;;;;;;;;;;;;;;-146.27;100.00;64033.13;5092900;28;20039;-38
2022/07/01 08:40:16;;;;;;;;;;;;;;;-146.27;100.00;64033.13;5092215;28;20046;-38
2022/07/01 08:42:42;;;;;;;;;;;;;;;-146.27;100.00;64033.13;5092263;28;20375;-36
2022/07/01 08:45:08;;;;;;;;;;;;;;;-146.27;100.00;64033.13;5090940;28;19912;-36
2022/07/01 08:47:33;;;;;;;;;;;;;;;-146.27;100.00;64033.13;5092283;28;19923;-36
2022/07/01 08:49:59;;;;;;;;;;;;;;;-146.27;100.00;64033.13;5091968;28;20011;-37
2022/07/01 08:52:25;;;;;;;;;;;;;;;-146.27;100.00;64033.13;5092868;28;19987;-37
2022/07/01 08:54:50;;;;;;;;;;;;;;;-146.27;100.00;64033.13;5091924;28;20011;-38
2022/07/01 08:57:20;;;;;;;;;;;;;;;-146.27;100.00;64033.13;5090647;28;19912;-38
2022/07/01 08:59:59;;;;;;;;;;;;;;;-146.27;100.00;64033.13;5090763;28;19916;-37
2022/07/01 09:02:27;;;;;;;;;;;;;;;-146.27;100.00;64033.13;5090135;28;19973;-38
2022/07/01 09:05:12;;;;;;;;;;;;;;;-146.27;100.00;64033.13;5091004;28;19994;-38
2022/07/01 09:07:38;;;;;;;;;;;;;;;-146.27;100.00;64033.13;5090896;28;19918;-37
2022/07/01 09:10:19;;;;;;;;;;;;;;;-146.27;100.00;64033.13;5091505;28;19912;-38
2022/07/01 09:12:47;;;;;;;;;;;;;;;-146.27;100.00;64033.13;5091658;28;19912;-37
2022/07/01 09:15:26;;;;;;;;;;;;;;;-146.27;100.00;64033.13;5091002;28;19916;-37
2022/07/01 09:17:57;;;;;;;;;;;;;;;-146.27;100.00;64033.13;5091707;28;19912;-38
2022/07/01 09:20:22;;;;;;;;;;;;;;;-146.27;100.00;64033.13;5090976;28;20024;-38
2022/07/01 09:23:17;;;;;;;;;;;;;;;-146.27;100.00;64033.13;5091028;28;19967;-38
2022/07/01 09:25:44;;;;;;;;;;;;;;;-146.27;100.00;64033.13;5082452;28;19912;-38
2022/07/01 09:28:13;;;;;;;;;;;;;;;-146.27;100.00;64033.13;5091727;28;19920;-38
2022/07/01 09:30:40;;;;;;;;;;;;;;;-146.27;100.00;64033.13;5091293;28;19916;-38
2022/07/01 09:33:05;;;;;;;;;;;;;;;-146.27;100.00;64033.13;5091276;28;20526;-38
2022/07/01 09:35:31;;;;;;;;;;;;;;;-146.27;100.00;64033.13;5091460;28;20047;-37
2022/07/01 09:37:56;;;;;;;;;;;;;;;-146.27;100.00;64033.13;5091324;28;19977;-38
2022/07/01 09:40:22;;;;;;;;;;;;;;;-146.27;100.00;64033.13;5091292;28;19916;-38
2022/07/01 09:42:47;;;;;;;;;;;;;;;-146.27;100.00;64033.13;5090639;28;20429;-38
2022/07/01 09:45:12;;;;;;;;;;;;;;;-146.27;100.00;64033.13;5091157;28;19912;-37
2022/07/01 09:47:42;;;;;;;;;;;;;;;-146.27;100.00;64033.13;5090757;28;19920;-36
2022/07/01 09:50:08;;;;;;;;;;;;;;;-146.27;100.00;64033.13;5091186;28;19912;-37
2022/07/01 09:52:34;;;;;;;;;;;;;;;-146.27;100.00;64033.13;5090918;28;19912;-37
2022/07/01 09:55:00;;;;;;;;;;;;;;;-146.27;100.00;64033.13;5090740;28;19916;-38
2022/07/01 09:57:26;;;;;;;;;;;;;;;-146.27;100.00;64033.13;5091622;28;19916;-38
2022/07/01 09:59:51;;;;;;;;;;;;;;;-146.27;100.00;64033.13;5091327;28;20304;-38
2022/07/01 10:02:21;;;;;;;;;;;;;;;-146.27;100.00;64033.13;5091097;28;19912;-44
2022/07/01 10:04:48;;;;;;;;;;;;;;;-146.27;100.00;64033.13;5090667;28;20348;-37
2022/07/01 10:07:32;;;;;;;;;;;;;;;-146.27;100.00;64033.13;5090804;28;19919;-38
2022/07/01 10:10:01;;;;;;;;;;;;;;;-146.27;100.00;64033.13;5090342;28;19973;-38
2022/07/01 10:12:59;;;;;;;;;;;;;;;-146.27;100.00;64033.13;5091031;28;19912;-37
2022/07/01 10:15:25;;;;;;;;;;;;;;;-146.27;100.00;64033.13;5066995;28;19927;-38
2022/07/01 10:17:51;;;;;;;;;;;;;;;-146.27;100.00;64033.13;5090706;28;19912;-38
2022/07/01 10:20:17;;;;;;;;;;;;;;;-146.27;100.00;64033.13;5090588;28;19912;-38
2022/07/01 10:22:44;;;;;;;;;;;;;;;-146.27;100.00;64033.13;5090762;28;19912;-37
2022/07/01 10:25:29;;;;;;;;;;;;;;;-146.27;100.00;64033.13;5089401;28;20102;-38
2022/07/01 10:28:12;;;;;;;;;;;;;;;-146.27;100.00;64033.13;5090912;28;19934;-37
2022/07/01 10:30:59;;;;;;;;;;;;;;;-146.27;100.00;64033.13;5090513;28;19969;-37
2022/07/01 10:33:37;;;;;;;;;;;;;;;-146.27;100.00;64033.13;5090708;28;19990;-37
2022/07/01 10:36:26;;;;;;;;;;;;;;;-146.27;100.00;64033.13;5089817;28;19921;-38
2022/07/01 10:39:07;;;;;;;;;;;;;;;-146.27;100.00;64033.13;5067044;28;19916;-38
2022/07/01 10:41:33;;;;;;;;;;;;;;;-146.27;100.00;64033.13;5070497;28;19912;-38
2022/07/01 10:44:02;;;;;;;;;;;;;;;-146.27;100.00;64033.13;5069973;28;19993;-38
2022/07/01 10:46:41;;;;;;;;;;;;;;;-146.27;100.00;64033.13;5070246;28;19919;-38
2022/07/01 10:49:12;;;;;;;;;;;;;;;-146.27;100.00;64033.13;5070283;28;19913;-38
2022/07/01 10:51:51;;;;;;;;;;;;;;;-146.27;100.00;64033.13;5070314;28;19916;-38
2022/07/01 10:54:43;;;;;;;;;;;;;;;-146.27;100.00;64033.13;5069770;28;19912;-38
2022/07/01 10:57:20;;;;;;;;;;;;;;;-146.27;100.00;64033.13;5069926;28;20383;-38
2022/07/01 10:59:48;;;;;;;;;;;;;;;-146.27;100.00;64033.13;5069967;28;19919;-40
2022/07/01 11:02:21;;;;;;;;;;;;;;;-146.27;100.00;64033.13;5070465;28;19920;-37
2022/07/01 11:04:46;;;;;;;;;;;;;;;-146.27;100.00;64033.13;5069935;28;19919;-37
2022/07/01 11:07:12;;;;;;;;;;;;;;;-146.27;100.00;64033.13;5068614;28;19913;-37
2022/07/01 11:09:38;;;;;;;;;;;;;;;-146.27;100.00;64033.13;5069763;28;19948;-36
2022/07/01 11:12:04;;;;;;;;;;;;;;;-146.27;100.00;64033.13;5070021;28;20144;-38
2022/07/01 11:14:33;;;;;;;;;;;;;;;-146.27;100.00;64033.13;5069941;28;19923;-38
2022/07/01 11:16:59;;;;;;;;;;;;;;;-146.27;100.00;64033.13;5070199;28;19974;-38
2022/07/01 11:19:24;;;;;;;;;;;;;;;-146.27;100.00;64033.13;5069790;28;19916;-37
2022/07/01 11:21:53;;;;;;;;;;;;;;;-146.27;100.00;64033.13;5071085;28;19912;-37
2022/07/01 11:24:19;;;;;;;;;;;;;;;-146.27;100.00;64033.13;5074095;28;19919;-37
2022/07/01 11:26:44;;;;;;;;;;;;;;;-146.27;100.00;64033.13;5075982;28;20399;-38
2022/07/01 11:29:10;;;;;;;;;;;;;;;-146.27;100.00;64033.13;5093787;28;19969;-38
2022/07/01 11:31:36;;;;;;;;;;;;;;;-146.27;100.00;64033.13;5093690;28;20435;-38
2022/07/01 11:34:01;;;;;;;;;;;;;;;-146.27;100.00;64033.13;5093416;28;19923;-38
2022/07/01 11:39:22;;;;;;;;;;;;;;;-146.27;100.00;64033.13;5093899;28;20395;-38
2022/07/01 11:41:57;;;;;;;;;;;;;;;-146.27;100.00;64033.13;5094010;28;19912;-36
2022/07/01 11:44:43;;;;;;;;;;;;;;;-146.27;100.00;64033.13;5093559;28;19924;-38
2022/07/01 11:47:09;;;;;;;;;;;;;;;-146.27;100.00;64033.13;5093538;28;19912;-38
2022/07/01 11:49:42;;;;;;;;;;;;;;;-146.27;100.00;64033.13;5093787;28;19916;-38
2022/07/01 11:52:09;;;;;;;;;;;;;;;-146.27;100.00;64033.13;5093447;28;20000;-38
2022/07/01 11:54:39;;;;;;;;;;;;;;;-146.27;100.00;64033.13;5093442;28;19982;-37
2022/07/01 11:57:09;;;;;;;;;;;;;;;-146.27;100.00;64033.13;5093383;28;19934;-38
2022/07/01 11:59:34;;;;;;;;;;;;;;;-146.27;100.00;64033.13;5092709;28;19968;-37
2022/07/01 12:01:59;;;;;;;;;;;;;;;-146.27;100.00;64033.13;5092242;28;20002;-39
2022/07/01 12:04:25;;;;;;;;;;;;;;;-146.27;100.00;64033.13;5092812;28;19919;-36
2022/07/01 12:06:50;;;;;;;;;;;;;;;-146.27;100.00;64033.13;5093196;28;19912;-47
2022/07/01 12:09:17;;;;;;;;;;;;;;;-146.27;100.00;64033.13;5093360;28;19912;-38
2022/07/01 12:11:47;;;;;;;;;;;;;;;-146.27;100.00;64033.13;5093374;28;19912;-38
2022/07/01 12:14:18;;;;;;;;;;;;;;;-146.27;100.00;64033.13;5093079;28;19923;-38
2022/07/01 12:16:44;;;;;;;;;;;;;;;-146.27;100.00;64033.13;5093228;28;19916;-38
2022/07/01 12:19:09;;;;;;;;;;;;;;;-146.27;100.00;64033.13;5093224;28;20268;-38
2022/07/01 12:21:47;;;;;;;;;;;;;;;-146.27;100.00;64033.13;5092941;28;20025;-37
2022/07/01 12:24:13;;;;;;;;;;;;;;;-146.27;100.00;64033.13;5092800;28;20262;-38
2022/07/01 12:26:51;;;;;;;;;;;;;;;-146.27;100.00;64033.13;5092689;28;19912;-38
2022/07/01 12:29:17;;;;;;;;;;;;;;;-146.27;100.00;64033.13;5092684;28;20363;-38
2022/07/01 12:31:42;;;;;;;;;;;;;;;-146.27;100.00;64033.13;5092736;28;19919;-38
2022/07/01 12:34:07;;;;;;;;;;;;;;;-146.27;100.00;64033.13;5092324;28;19912;-38